sensor_id;sensor_type;location;lat;lon;timestamp;P1;durP1;ratioP1;P2;durP2;ratioP2
36445;SDS011;22472;50.848;-1.216;2022-09-17T16:07:16;4.63;;;0.20;;
36445;SDS011;22472;50.848;-1.216;2022-09-17T16:09:53;2.10;;;0.20;;
36445;SDS011;22472;50.848;-1.216;2022-09-17T16:12:24;1.08;;;0.10;;
36445;SDS011;22472;50.848;-1.216;2022-09-17T16:14:53;2.57;;;0.20;;
36445;SDS011;22472;50.848;-1.216;2022-09-17T16:17:23;1.75;;;0.20;;
36445;SDS011;22472;50.848;-1.216;2022-09-17T16:20:04;1.40;;;0.20;;
36445;SDS011;22472;50.848;-1.216;2022-09-17T16:22:34;1.98;;;0.10;;
36445;SDS011;22472;50.848;-1.216;2022-09-17T16:25:01;2.17;;;0.20;;
36445;SDS011;22472;50.848;-1.216;2022-09-17T16:27:30;1.85;;;0.20;;
36445;SDS011;22472;50.848;-1.216;2022-09-17T16:30:04;1.58;;;0.10;;
36445;SDS011;22472;50.848;-1.216;2022-09-17T16:32:33;2.33;;;0.13;;
36445;SDS011;22472;50.848;-1.216;2022-09-17T16:35:00;2.47;;;0.20;;
36445;SDS011;22472;50.848;-1.216;2022-09-17T16:37:27;2.33;;;0.10;;
36445;SDS011;22472;50.848;-1.216;2022-09-17T16:39:56;1.33;;;0.20;;
36445;SDS011;22472;50.848;-1.216;2022-09-17T16:42:24;3.42;;;0.20;;
36445;SDS011;22472;50.848;-1.216;2022-09-17T16:44:55;1.67;;;0.20;;
36445;SDS011;22472;50.848;-1.216;2022-09-17T16:47:24;1.30;;;0.20;;
36445;SDS011;22472;50.848;-1.216;2022-09-17T16:49:51;1.17;;;0.10;;
36445;SDS011;22472;50.848;-1.216;2022-09-17T16:52:18;1.08;;;0.15;;
36445;SDS011;22472;50.848;-1.216;2022-09-17T16:54:45;1.75;;;0.25;;
36445;SDS011;22472;50.848;-1.216;2022-09-17T16:57:13;1.83;;;0.20;;
36445;SDS011;22472;50.848;-1.216;2022-09-17T16:59:41;5.03;;;0.30;;
36445;SDS011;22472;50.848;-1.216;2022-09-17T17:02:08;2.35;;;0.30;;
36445;SDS011;22472;50.848;-1.216;2022-09-17T17:04:35;3.00;;;0.40;;
36445;SDS011;22472;50.848;-1.216;2022-09-17T17:07:02;2.70;;;0.20;;
36445;SDS011;22472;50.848;-1.216;2022-09-17T17:09:29;2.90;;;0.20;;
36445;SDS011;22472;50.848;-1.216;2022-09-17T17:11:56;1.60;;;0.40;;
36445;SDS011;22472;50.848;-1.216;2022-09-17T17:14:25;2.33;;;0.30;;
36445;SDS011;22472;50.848;-1.216;2022-09-17T17:16:52;3.65;;;1.27;;
36445;SDS011;22472;50.848;-1.216;2022-09-17T17:19:19;4.18;;;0.30;;
36445;SDS011;22472;50.848;-1.216;2022-09-17T17:21:48;1.15;;;0.20;;
36445;SDS011;22472;50.848;-1.216;2022-09-17T17:24:15;3.08;;;0.20;;
36445;SDS011;22472;50.848;-1.216;2022-09-17T17:26:42;0.90;;;0.22;;
36445;SDS011;22472;50.848;-1.216;2022-09-17T17:29:10;2.80;;;0.30;;
36445;SDS011;22472;50.848;-1.216;2022-09-17T17:31:39;2.38;;;0.30;;
36445;SDS011;22472;50.848;-1.216;2022-09-17T17:34:06;2.83;;;0.20;;
36445;SDS011;22472;50.848;-1.216;2022-09-17T17:39:03;1.30;;;0.20;;
36445;SDS011;22472;50.848;-1.216;2022-09-17T17:41:30;1.75;;;0.30;;
36445;SDS011;22472;50.848;-1.216;2022-09-17T17:43:57;2.55;;;0.20;;
36445;SDS011;22472;50.848;-1.216;2022-09-17T17:46:24;1.52;;;0.20;;
36445;SDS011;22472;50.848;-1.216;2022-09-17T17:48:52;2.55;;;0.20;;
36445;SDS011;22472;50.848;-1.216;2022-09-17T17:51:19;1.88;;;0.20;;
36445;SDS011;22472;50.848;-1.216;2022-09-17T17:53:48;3.17;;;0.40;;
36445;SDS011;22472;50.848;-1.216;2022-09-17T17:56:15;3.20;;;0.30;;
36445;SDS011;22472;50.848;-1.216;2022-09-17T17:58:42;1.98;;;0.20;;
36445;SDS011;22472;50.848;-1.216;2022-09-17T18:01:10;2.03;;;0.30;;
36445;SDS011;22472;50.848;-1.216;2022-09-17T18:03:38;0.80;;;0.20;;
36445;SDS011;22472;50.848;-1.216;2022-09-17T18:06:07;3.17;;;0.32;;
36445;SDS011;22472;50.848;-1.216;2022-09-17T18:08:34;2.03;;;0.25;;
36445;SDS011;22472;50.848;-1.216;2022-09-17T18:11:02;1.70;;;0.25;;
36445;SDS011;22472;50.848;-1.216;2022-09-17T18:13:30;2.53;;;0.50;;
36445;SDS011;22472;50.848;-1.216;2022-09-17T18:15:57;2.67;;;0.40;;
36445;SDS011;22472;50.848;-1.216;2022-09-17T18:18:29;3.50;;;0.50;;
36445;SDS011;22472;50.848;-1.216;2022-09-17T18:20:59;4.63;;;1.08;;
36445;SDS011;22472;50.848;-1.216;2022-09-17T18:23:28;2.90;;;0.80;;
36445;SDS011;22472;50.848;-1.216;2022-09-17T18:25:56;4.97;;;1.10;;
36445;SDS011;22472;50.848;-1.216;2022-09-17T18:28:24;3.45;;;1.05;;
36445;SDS011;22472;50.848;-1.216;2022-09-17T18:30:52;2.47;;;0.77;;
36445;SDS011;22472;50.848;-1.216;2022-09-17T18:33:20;3.20;;;0.80;;
36445;SDS011;22472;50.848;-1.216;2022-09-17T18:35:49;2.78;;;0.73;;
36445;SDS011;22472;50.848;-1.216;2022-09-17T18:38:20;3.35;;;1.15;;
36445;SDS011;22472;50.848;-1.216;2022-09-17T18:40:50;2.78;;;1.30;;
36445;SDS011;22472;50.848;-1.216;2022-09-17T18:43:17;4.10;;;1.15;;
36445;SDS011;22472;50.848;-1.216;2022-09-17T18:45:51;5.45;;;1.98;;
36445;SDS011;22472;50.848;-1.216;2022-09-17T18:48:18;4.25;;;2.10;;
36445;SDS011;22472;50.848;-1.216;2022-09-17T18:50:53;5.93;;;3.08;;
36445;SDS011;22472;50.848;-1.216;2022-09-17T18:53:21;7.00;;;2.83;;
36445;SDS011;22472;50.848;-1.216;2022-09-17T18:55:50;8.55;;;3.60;;
36445;SDS011;22472;50.848;-1.216;2022-09-17T18:58:17;9.70;;;3.75;;
36445;SDS011;22472;50.848;-1.216;2022-09-17T19:00:44;6.80;;;3.63;;
36445;SDS011;22472;50.848;-1.216;2022-09-17T19:03:11;9.73;;;3.10;;
36445;SDS011;22472;50.848;-1.216;2022-09-17T19:05:38;6.65;;;2.72;;
36445;SDS011;22472;50.848;-1.216;2022-09-17T19:08:06;6.45;;;2.58;;
36445;SDS011;22472;50.848;-1.216;2022-09-17T19:10:33;6.55;;;2.55;;
36445;SDS011;22472;50.848;-1.216;2022-09-17T19:13:01;5.95;;;2.40;;
36445;SDS011;22472;50.848;-1.216;2022-09-17T19:15:28;7.40;;;1.98;;
36445;SDS011;22472;50.848;-1.216;2022-09-17T19:17:55;9.80;;;2.30;;
36445;SDS011;22472;50.848;-1.216;2022-09-17T19:20:23;6.72;;;2.10;;
36445;SDS011;22472;50.848;-1.216;2022-09-17T19:22:50;4.35;;;2.00;;
36445;SDS011;22472;50.848;-1.216;2022-09-17T19:25:17;7.07;;;2.38;;
36445;SDS011;22472;50.848;-1.216;2022-09-17T19:27:45;6.10;;;2.20;;
36445;SDS011;22472;50.848;-1.216;2022-09-17T19:30:13;4.57;;;1.80;;
36445;SDS011;22472;50.848;-1.216;2022-09-17T19:32:43;4.47;;;2.30;;
36445;SDS011;22472;50.848;-1.216;2022-09-17T19:37:38;7.25;;;2.00;;
36445;SDS011;22472;50.848;-1.216;2022-09-17T19:40:06;5.40;;;2.42;;
36445;SDS011;22472;50.848;-1.216;2022-09-17T19:42:34;3.25;;;1.70;;
36445;SDS011;22472;50.848;-1.216;2022-09-17T19:45:01;4.32;;;1.92;;
36445;SDS011;22472;50.848;-1.216;2022-09-17T19:47:29;3.15;;;1.50;;
36445;SDS011;22472;50.848;-1.216;2022-09-17T19:49:56;6.00;;;2.25;;
36445;SDS011;22472;50.848;-1.216;2022-09-17T19:52:24;4.25;;;1.98;;
36445;SDS011;22472;50.848;-1.216;2022-09-17T19:54:51;5.88;;;2.30;;
36445;SDS011;22472;50.848;-1.216;2022-09-17T19:57:18;6.78;;;1.98;;
36445;SDS011;22472;50.848;-1.216;2022-09-17T19:59:45;7.35;;;1.55;;
36445;SDS011;22472;50.848;-1.216;2022-09-17T20:02:12;3.67;;;1.23;;
36445;SDS011;22472;50.848;-1.216;2022-09-17T20:04:40;4.07;;;1.33;;
36445;SDS011;22472;50.848;-1.216;2022-09-17T20:07:07;3.63;;;1.20;;
36445;SDS011;22472;50.848;-1.216;2022-09-17T20:09:34;2.70;;;0.98;;
36445;SDS011;22472;50.848;-1.216;2022-09-17T20:12:02;2.88;;;0.82;;
36445;SDS011;22472;50.848;-1.216;2022-09-17T20:14:29;2.65;;;1.00;;
36445;SDS011;22472;50.848;-1.216;2022-09-17T20:16:56;4.68;;;1.20;;
36445;SDS011;22472;50.848;-1.216;2022-09-17T20:19:24;4.25;;;1.30;;
36445;SDS011;22472;50.848;-1.216;2022-09-17T20:21:52;3.25;;;1.02;;
36445;SDS011;22472;50.848;-1.216;2022-09-17T20:24:19;3.90;;;1.27;;
36445;SDS011;22472;50.848;-1.216;2022-09-17T20:26:46;4.68;;;1.38;;
36445;SDS011;22472;50.848;-1.216;2022-09-17T20:29:13;5.32;;;2.10;;
36445;SDS011;22472;50.848;-1.216;2022-09-17T20:31:40;4.65;;;1.67;;
36445;SDS011;22472;50.848;-1.216;2022-09-17T20:34:08;4.80;;;1.40;;
36445;SDS011;22472;50.848;-1.216;2022-09-17T20:36:36;4.85;;;1.90;;
36445;SDS011;22472;50.848;-1.216;2022-09-17T20:39:05;4.60;;;1.88;;
36445;SDS011;22472;50.848;-1.216;2022-09-17T20:41:35;3.50;;;1.70;;
36445;SDS011;22472;50.848;-1.216;2022-09-17T20:44:04;4.38;;;2.55;;
36445;SDS011;22472;50.848;-1.216;2022-09-17T20:46:32;5.95;;;2.90;;
36445;SDS011;22472;50.848;-1.216;2022-09-17T20:48:59;9.40;;;4.72;;
36445;SDS011;22472;50.848;-1.216;2022-09-17T20:51:27;11.15;;;5.43;;
36445;SDS011;22472;50.848;-1.216;2022-09-17T20:53:56;10.90;;;5.00;;
36445;SDS011;22472;50.848;-1.216;2022-09-17T20:56:26;8.88;;;4.70;;
36445;SDS011;22472;50.848;-1.216;2022-09-17T21:01:25;7.22;;;3.63;;
36445;SDS011;22472;50.848;-1.216;2022-09-17T21:03:56;5.70;;;3.60;;
36445;SDS011;22472;50.848;-1.216;2022-09-17T21:06:25;6.28;;;3.40;;
36445;SDS011;22472;50.848;-1.216;2022-09-17T21:08:53;6.45;;;3.33;;
36445;SDS011;22472;50.848;-1.216;2022-09-17T21:11:21;8.02;;;3.95;;
36445;SDS011;22472;50.848;-1.216;2022-09-17T21:13:50;7.97;;;4.38;;
36445;SDS011;22472;50.848;-1.216;2022-09-17T21:16:18;9.68;;;4.60;;
36445;SDS011;22472;50.848;-1.216;2022-09-17T21:18:45;6.43;;;3.10;;
36445;SDS011;22472;50.848;-1.216;2022-09-17T21:21:13;6.90;;;3.22;;
36445;SDS011;22472;50.848;-1.216;2022-09-17T21:23:41;5.90;;;3.13;;
36445;SDS011;22472;50.848;-1.216;2022-09-17T21:26:09;8.77;;;3.53;;
36445;SDS011;22472;50.848;-1.216;2022-09-17T21:28:37;6.03;;;2.65;;
36445;SDS011;22472;50.848;-1.216;2022-09-17T21:31:08;6.72;;;2.95;;
36445;SDS011;22472;50.848;-1.216;2022-09-17T21:33:36;5.30;;;2.53;;
36445;SDS011;22472;50.848;-1.216;2022-09-17T21:36:04;7.13;;;2.63;;
36445;SDS011;22472;50.848;-1.216;2022-09-17T21:38:32;9.35;;;4.35;;
36445;SDS011;22472;50.848;-1.216;2022-09-17T21:41:01;6.28;;;4.00;;
36445;SDS011;22472;50.848;-1.216;2022-09-17T21:43:29;8.70;;;4.75;;
36445;SDS011;22472;50.848;-1.216;2022-09-17T21:45:57;7.38;;;4.32;;
36445;SDS011;22472;50.848;-1.216;2022-09-17T21:48:26;7.22;;;4.35;;
36445;SDS011;22472;50.848;-1.216;2022-09-17T21:50:59;6.63;;;3.80;;
36445;SDS011;22472;50.848;-1.216;2022-09-17T21:53:27;10.10;;;4.63;;
36445;SDS011;22472;50.848;-1.216;2022-09-17T21:55:59;10.65;;;5.20;;
36445;SDS011;22472;50.848;-1.216;2022-09-17T21:58:28;12.10;;;6.13;;
36445;SDS011;22472;50.848;-1.216;2022-09-17T22:00:55;11.73;;;6.05;;
36445;SDS011;22472;50.848;-1.216;2022-09-17T22:03:23;12.82;;;6.65;;
36445;SDS011;22472;50.848;-1.216;2022-09-17T22:05:52;11.57;;;7.10;;
36445;SDS011;22472;50.848;-1.216;2022-09-17T22:08:19;15.20;;;6.25;;
36445;SDS011;22472;50.848;-1.216;2022-09-17T22:10:46;11.38;;;5.50;;
36445;SDS011;22472;50.848;-1.216;2022-09-17T22:13:13;8.73;;;4.68;;
36445;SDS011;22472;50.848;-1.216;2022-09-17T22:15:40;14.48;;;5.40;;
36445;SDS011;22472;50.848;-1.216;2022-09-17T22:18:07;8.73;;;4.65;;
36445;SDS011;22472;50.848;-1.216;2022-09-17T22:20:34;10.52;;;4.50;;
36445;SDS011;22472;50.848;-1.216;2022-09-17T22:23:02;9.77;;;4.60;;
36445;SDS011;22472;50.848;-1.216;2022-09-17T22:25:29;9.63;;;4.10;;
36445;SDS011;22472;50.848;-1.216;2022-09-17T22:27:56;10.27;;;4.40;;
36445;SDS011;22472;50.848;-1.216;2022-09-17T22:30:23;10.70;;;5.03;;
36445;SDS011;22472;50.848;-1.216;2022-09-17T22:32:51;9.48;;;5.22;;
36445;SDS011;22472;50.848;-1.216;2022-09-17T22:35:18;12.68;;;5.55;;
36445;SDS011;22472;50.848;-1.216;2022-09-17T22:37:45;12.77;;;4.85;;
36445;SDS011;22472;50.848;-1.216;2022-09-17T22:40:14;8.63;;;4.32;;
36445;SDS011;22472;50.848;-1.216;2022-09-17T22:42:41;8.48;;;4.13;;
36445;SDS011;22472;50.848;-1.216;2022-09-17T22:45:08;9.55;;;4.35;;
36445;SDS011;22472;50.848;-1.216;2022-09-17T22:47:35;10.55;;;4.50;;
36445;SDS011;22472;50.848;-1.216;2022-09-17T22:50:05;10.52;;;4.55;;
36445;SDS011;22472;50.848;-1.216;2022-09-17T22:52:33;8.93;;;3.95;;
36445;SDS011;22472;50.848;-1.216;2022-09-17T22:55:00;10.00;;;3.65;;
36445;SDS011;22472;50.848;-1.216;2022-09-17T22:57:28;6.80;;;3.78;;
36445;SDS011;22472;50.848;-1.216;2022-09-17T22:59:55;9.95;;;4.45;;
36445;SDS011;22472;50.848;-1.216;2022-09-17T23:02:22;9.50;;;3.92;;
36445;SDS011;22472;50.848;-1.216;2022-09-17T23:04:49;8.60;;;3.75;;
36445;SDS011;22472;50.848;-1.216;2022-09-17T23:07:17;9.15;;;4.10;;
36445;SDS011;22472;50.848;-1.216;2022-09-17T23:09:44;6.82;;;3.28;;
36445;SDS011;22472;50.848;-1.216;2022-09-17T23:12:11;8.40;;;4.10;;
36445;SDS011;22472;50.848;-1.216;2022-09-17T23:14:39;9.30;;;4.00;;
36445;SDS011;22472;50.848;-1.216;2022-09-17T23:17:06;10.32;;;4.07;;
36445;SDS011;22472;50.848;-1.216;2022-09-17T23:19:33;8.20;;;3.95;;
36445;SDS011;22472;50.848;-1.216;2022-09-17T23:22:00;7.97;;;4.95;;
36445;SDS011;22472;50.848;-1.216;2022-09-17T23:24:28;11.65;;;4.53;;
36445;SDS011;22472;50.848;-1.216;2022-09-17T23:26:56;8.88;;;4.00;;
36445;SDS011;22472;50.848;-1.216;2022-09-17T23:29:23;10.82;;;3.65;;
36445;SDS011;22472;50.848;-1.216;2022-09-17T23:31:51;7.03;;;3.60;;
36445;SDS011;22472;50.848;-1.216;2022-09-17T23:34:18;7.82;;;3.40;;
36445;SDS011;22472;50.848;-1.216;2022-09-17T23:36:45;11.88;;;4.03;;
36445;SDS011;22472;50.848;-1.216;2022-09-17T23:39:12;10.68;;;4.28;;
36445;SDS011;22472;50.848;-1.216;2022-09-17T23:41:40;8.73;;;3.60;;
36445;SDS011;22472;50.848;-1.216;2022-09-17T23:44:10;8.02;;;3.78;;
36445;SDS011;22472;50.848;-1.216;2022-09-17T23:46:37;8.77;;;3.50;;
36445;SDS011;22472;50.848;-1.216;2022-09-17T23:49:06;7.57;;;3.30;;
36445;SDS011;22472;50.848;-1.216;2022-09-17T23:51:33;8.75;;;3.58;;
36445;SDS011;22472;50.848;-1.216;2022-09-17T23:54:02;7.72;;;3.45;;
36445;SDS011;22472;50.848;-1.216;2022-09-17T23:56:31;9.48;;;4.10;;
36445;SDS011;22472;50.848;-1.216;2022-09-17T23:58:59;9.02;;;4.18;;
